createdAt,value
2023-02-06T00:00:26.031Z,103510.38
2023-02-06T00:02:53.407Z,103508.28
2023-02-06T00:05:22.156Z,103495.38
2023-02-06T00:07:49.575Z,103497.41
2023-02-06T00:10:17.043Z,103512.53
2023-02-06T00:12:44.480Z,103515.53
2023-02-06T00:15:12.038Z,103516.06
2023-02-06T00:17:39.506Z,103520.09
2023-02-06T00:20:09.005Z,103524.94
2023-02-06T00:22:37.794Z,103527.03
2023-02-06T00:25:06.280Z,103530.53
2023-02-06T00:27:34.118Z,103538.00
2023-02-06T00:30:01.723Z,103531.47
2023-02-06T00:32:29.203Z,103529.50
2023-02-06T00:34:56.675Z,103532.03
2023-02-06T00:37:24.199Z,103536.25
2023-02-06T00:39:53.027Z,103532.38
2023-02-06T00:42:20.653Z,103534.13
2023-02-06T00:44:48.044Z,103531.84
2023-02-06T00:47:15.519Z,103538.81
2023-02-06T00:49:42.976Z,103528.63
2023-02-06T00:52:10.414Z,103527.47
2023-02-06T00:54:37.864Z,103529.56
2023-02-06T00:57:06.658Z,103532.88
2023-02-06T00:59:34.136Z,103527.03
2023-02-06T01:02:01.663Z,103518.44
2023-02-06T01:04:29.120Z,103523.66
2023-02-06T01:06:56.506Z,103512.19
2023-02-06T01:09:23.902Z,103519.19
2023-02-06T01:11:51.544Z,103527.06
2023-02-06T01:14:20.316Z,103515.88
2023-02-06T01:16:47.752Z,103518.97
2023-02-06T01:19:15.169Z,103522.72
2023-02-06T01:21:42.640Z,103525.19
2023-02-06T01:24:10.037Z,103539.94
2023-02-06T01:26:37.484Z,103531.47
2023-02-06T01:29:05.109Z,103527.56
2023-02-06T01:31:34.653Z,103525.53
2023-02-06T01:34:02.062Z,103521.97
2023-02-06T01:36:30.151Z,103518.22
2023-02-06T01:38:57.601Z,103522.38
2023-02-06T01:41:25.097Z,103509.28
2023-02-06T01:44:11.627Z,103491.66
2023-02-06T01:46:41.840Z,103495.97
2023-02-06T01:49:12.652Z,103489.81
2023-02-06T01:51:41.240Z,103477.47
2023-02-06T01:54:10.541Z,103476.44
2023-02-06T01:56:43.860Z,103481.59
2023-02-06T01:59:12.704Z,103474.28
2023-02-06T02:01:41.978Z,103480.06
2023-02-06T02:04:15.833Z,103473.34
2023-02-06T02:06:43.328Z,103461.63
2023-02-06T02:09:10.744Z,103459.53
2023-02-06T02:11:41.793Z,103458.97
2023-02-06T02:14:13.679Z,103455.47
2023-02-06T02:16:52.306Z,103457.41
2023-02-06T02:19:50.910Z,103455.00
2023-02-06T02:22:39.685Z,103444.72
2023-02-06T02:25:25.557Z,103439.03
2023-02-06T02:28:12.725Z,103447.13
2023-02-06T02:31:07.974Z,103448.28
2023-02-06T02:34:01.632Z,103449.97
2023-02-06T02:36:35.897Z,103439.50
2023-02-06T02:39:12.941Z,103443.22
2023-02-06T02:41:45.884Z,103431.19
2023-02-06T02:44:21.090Z,103425.81
2023-02-06T02:46:52.435Z,103431.97
2023-02-06T02:49:25.283Z,103429.47
2023-02-06T02:51:54.101Z,103421.16
2023-02-06T02:54:21.571Z,103415.59
2023-02-06T02:56:49.301Z,103414.94
2023-02-06T02:59:23.701Z,103410.25
2023-02-06T03:01:57.135Z,103413.78
2023-02-06T03:04:28.640Z,103407.22
2023-02-06T03:07:09.437Z,103417.78
2023-02-06T03:09:49.023Z,103417.66
2023-02-06T03:12:22.998Z,103417.66
2023-02-06T03:14:55.860Z,103420.72
2023-02-06T03:17:33.962Z,103442.59
2023-02-06T03:20:03.577Z,103435.69
2023-02-06T03:22:35.735Z,103433.19
2023-02-06T03:25:03.967Z,103428.84
2023-02-06T03:27:33.262Z,103426.41
2023-02-06T03:30:03.962Z,103423.03
2023-02-06T03:32:35.296Z,103425.78
2023-02-06T03:35:08.060Z,103419.28
2023-02-06T03:37:38.238Z,103409.88
2023-02-06T03:40:08.580Z,103408.81
2023-02-06T03:42:40.511Z,103414.69
2023-02-06T03:45:14.122Z,103400.97
2023-02-06T03:47:44.353Z,103397.19
2023-02-06T03:50:13.336Z,103400.03
2023-02-06T03:52:46.289Z,103409.34
2023-02-06T03:55:15.901Z,103414.50
2023-02-06T03:57:48.573Z,103414.28
2023-02-06T04:00:16.793Z,103427.00
2023-02-06T04:02:47.469Z,103417.19
2023-02-06T04:05:15.051Z,103418.13
2023-02-06T04:07:44.265Z,103417.22
2023-02-06T04:10:12.101Z,103428.56
2023-02-06T04:12:39.833Z,103421.78
2023-02-06T04:15:07.996Z,103416.06
2023-02-06T04:17:57.540Z,103412.56
2023-02-06T04:20:22.899Z,103404.13
2023-02-06T04:22:51.713Z,103406.78
2023-02-06T04:25:19.361Z,103403.66
2023-02-06T04:27:46.898Z,103388.34
2023-02-06T04:30:15.672Z,103400.69
2023-02-06T04:32:43.162Z,103398.56
2023-02-06T04:35:11.199Z,103389.75
2023-02-06T04:37:38.673Z,103374.28
2023-02-06T04:40:08.433Z,103384.72
2023-02-06T04:42:35.862Z,103388.84
2023-02-06T04:45:03.275Z,103384.03
2023-02-06T04:47:30.735Z,103379.28
2023-02-06T04:49:58.122Z,103381.28
2023-02-06T04:52:25.705Z,103377.25
2023-02-06T04:54:53.141Z,103378.44
2023-02-06T04:57:21.885Z,103375.66
2023-02-06T04:59:49.313Z,103386.59
2023-02-06T05:02:16.770Z,103383.94
2023-02-06T05:04:44.244Z,103377.28
2023-02-06T05:07:11.740Z,103378.69
2023-02-06T05:09:39.184Z,103376.72
2023-02-06T05:12:06.928Z,103383.06
2023-02-06T05:14:35.720Z,103394.19
2023-02-06T05:17:03.142Z,103387.91
2023-02-06T05:19:30.530Z,103383.88
2023-02-06T05:21:57.982Z,103386.19
2023-02-06T05:24:25.483Z,103388.25
2023-02-06T05:26:52.961Z,103371.72
2023-02-06T05:29:20.378Z,103383.91
2023-02-06T05:31:49.125Z,103369.19
2023-02-06T05:34:16.525Z,103363.56
2023-02-06T05:36:44.015Z,103368.16
2023-02-06T05:39:11.437Z,103359.53
2023-02-06T05:41:38.931Z,103364.84
2023-02-06T05:44:06.557Z,103364.63
2023-02-06T05:46:34.070Z,103366.50
2023-02-06T05:49:02.874Z,103366.66
2023-02-06T05:51:30.242Z,103370.19
2023-02-06T05:53:57.679Z,103376.63
2023-02-06T05:56:25.103Z,103382.44
2023-02-06T05:58:52.571Z,103381.59
2023-02-06T06:01:20.269Z,103385.66
2023-02-06T06:03:47.808Z,103385.19
2023-02-06T06:06:16.677Z,103386.59
2023-02-06T06:08:44.153Z,103401.38
2023-02-06T06:11:11.579Z,103394.59
2023-02-06T06:13:39.016Z,103404.50
2023-02-06T06:16:06.709Z,103399.47
2023-02-06T06:18:34.228Z,103415.97
2023-02-06T06:21:01.626Z,103419.75
2023-02-06T06:23:30.429Z,103420.91
2023-02-06T06:25:57.882Z,103430.25
2023-02-06T06:28:25.335Z,103425.28
2023-02-06T06:30:52.744Z,103422.56
2023-02-06T06:33:20.142Z,103423.16
2023-02-06T06:35:47.574Z,103419.63
2023-02-06T06:38:15.362Z,103407.19
2023-02-06T06:40:44.127Z,103410.56
2023-02-06T06:43:11.574Z,103405.91
2023-02-06T06:45:39.408Z,103408.69
2023-02-06T06:48:07.116Z,103412.06
2023-02-06T06:50:34.583Z,103411.56
2023-02-06T06:53:02.020Z,103405.69
2023-02-06T06:55:29.557Z,103394.38
2023-02-06T06:57:58.401Z,103387.69
2023-02-06T07:00:25.969Z,103395.09
2023-02-06T07:02:53.495Z,103393.75
2023-02-06T07:05:21.083Z,103393.09
2023-02-06T07:07:48.542Z,103375.31
2023-02-06T07:10:16.337Z,103386.44
2023-02-06T07:12:43.765Z,103396.13
2023-02-06T07:15:12.547Z,103398.59
2023-02-06T07:17:40.072Z,103401.03
2023-02-06T07:20:08.088Z,103401.00
2023-02-06T07:22:35.493Z,103398.69
2023-02-06T07:25:02.955Z,103402.78
2023-02-06T07:27:30.453Z,103409.59
2023-02-06T07:29:57.866Z,103413.31
2023-02-06T07:32:26.723Z,103406.16
2023-02-06T07:34:54.113Z,103402.53
2023-02-06T07:37:21.532Z,103409.78
2023-02-06T07:39:48.957Z,103410.72
2023-02-06T07:42:16.381Z,103401.94
2023-02-06T07:44:43.781Z,103406.53
2023-02-06T07:47:11.492Z,103411.25
2023-02-06T07:49:40.297Z,103407.97
2023-02-06T07:52:07.791Z,103401.19
2023-02-06T07:54:35.220Z,103403.50
2023-02-06T07:57:02.695Z,103381.22
2023-02-06T07:59:30.123Z,103389.16
2023-02-06T08:01:57.537Z,103397.06
2023-02-06T08:04:24.977Z,103392.94
2023-02-06T08:06:53.714Z,103395.94
2023-02-06T08:09:21.137Z,103399.00
2023-02-06T08:11:48.612Z,103384.28
2023-02-06T08:14:16.063Z,103409.13
2023-02-06T08:16:43.710Z,103411.44
2023-02-06T08:19:12.311Z,103408.81
2023-02-06T08:21:40.008Z,103406.94
2023-02-06T08:24:12.149Z,103411.59
2023-02-06T08:26:40.095Z,103395.50
2023-02-06T08:29:08.725Z,103386.88
2023-02-06T08:31:38.660Z,103392.41
2023-02-06T08:34:06.969Z,103397.47
2023-02-06T08:36:35.126Z,103407.56
2023-02-06T08:39:04.536Z,103394.75
2023-02-06T08:41:37.016Z,103405.78
2023-02-06T08:44:07.137Z,103410.09
2023-02-06T08:46:35.187Z,103409.16
2023-02-06T08:49:04.935Z,103407.34
2023-02-06T08:51:32.991Z,103411.16
2023-02-06T08:54:02.132Z,103405.66
2023-02-06T08:56:34.036Z,103412.97
2023-02-06T08:59:02.033Z,103406.72
2023-02-06T09:01:31.570Z,103419.16
2023-02-06T09:04:03.806Z,103408.13
2023-02-06T09:06:32.027Z,103400.78
2023-02-06T09:08:59.430Z,103400.28
2023-02-06T09:11:27.627Z,103401.22
2023-02-06T09:13:57.976Z,103402.56
2023-02-06T09:16:26.414Z,103406.75
2023-02-06T09:18:54.676Z,103411.69
2023-02-06T09:21:23.937Z,103411.53
2023-02-06T09:23:53.419Z,103421.16
2023-02-06T09:26:23.252Z,103428.56
2023-02-06T09:28:53.007Z,103436.16
2023-02-06T09:31:22.061Z,103443.34
2023-02-06T09:33:49.628Z,103453.97
2023-02-06T09:36:19.693Z,103455.84
2023-02-06T09:38:49.053Z,103461.00
2023-02-06T09:41:19.078Z,103456.06
2023-02-06T09:43:51.577Z,103469.94
2023-02-06T09:46:26.861Z,103455.94
2023-02-06T09:48:56.258Z,103465.38
2023-02-06T09:51:31.646Z,103461.63
2023-02-06T09:54:06.920Z,103462.50
2023-02-06T09:56:40.218Z,103462.50
2023-02-06T09:59:17.080Z,103466.63
2023-02-06T10:01:53.372Z,103457.19
2023-02-06T10:04:35.184Z,103473.38
2023-02-06T10:07:15.621Z,103475.28
2023-02-06T10:09:48.950Z,103477.56
2023-02-06T10:12:24.746Z,103479.50
2023-02-06T10:14:56.666Z,103479.97
2023-02-06T10:17:30.044Z,103490.66
2023-02-06T10:20:03.192Z,103482.31
2023-02-06T10:22:38.732Z,103485.34
2023-02-06T10:25:19.188Z,103491.38
2023-02-06T10:27:50.295Z,103479.97
2023-02-06T10:30:20.911Z,103476.84
2023-02-06T10:33:00.048Z,103477.59
2023-02-06T10:35:40.325Z,103477.09
2023-02-06T10:38:28.242Z,103479.84
2023-02-06T10:41:04.421Z,103473.38
2023-02-06T10:43:40.427Z,103470.41
2023-02-06T10:46:28.288Z,103469.53
2023-02-06T10:49:03.426Z,103465.94
2023-02-06T10:51:33.667Z,103462.81
2023-02-06T10:54:04.045Z,103458.28
2023-02-06T10:56:36.686Z,103454.81
2023-02-06T10:59:07.977Z,103462.81
2023-02-06T11:01:37.908Z,103473.03
2023-02-06T11:04:14.958Z,103470.47
2023-02-06T11:06:45.918Z,103459.88
2023-02-06T11:09:13.691Z,103469.66
2023-02-06T11:11:43.093Z,103479.31
2023-02-06T11:14:16.796Z,103483.84
2023-02-06T11:16:45.394Z,103489.44
2023-02-06T11:19:18.522Z,103477.84
2023-02-06T11:21:57.778Z,103481.25
2023-02-06T11:24:25.998Z,103479.50
2023-02-06T11:26:57.267Z,103481.44
2023-02-06T11:29:28.292Z,103487.69
2023-02-06T11:31:59.235Z,103483.16
2023-02-06T11:34:32.253Z,103472.91
2023-02-06T11:37:02.491Z,103485.16
2023-02-06T11:39:32.395Z,103479.88
2023-02-06T11:42:05.334Z,103488.22
2023-02-06T11:44:40.928Z,103484.13
2023-02-06T11:47:21.748Z,103488.09
2023-02-06T11:49:50.483Z,103482.22
2023-02-06T11:52:30.143Z,103492.47
2023-02-06T11:55:02.739Z,103499.06
2023-02-06T11:57:31.892Z,103487.88
2023-02-06T12:00:01.557Z,103487.44
2023-02-06T12:02:32.551Z,103503.69
2023-02-06T12:05:12.775Z,103499.38
2023-02-06T12:07:45.214Z,103494.84
2023-02-06T12:10:15.949Z,103489.78
2023-02-06T12:12:47.100Z,103493.97
2023-02-06T12:15:43.633Z,103497.03
2023-02-06T12:18:10.663Z,103496.63
2023-02-06T12:20:48.478Z,103487.31
2023-02-06T12:23:21.697Z,103496.09
2023-02-06T12:25:51.131Z,103504.13
2023-02-06T12:28:22.095Z,103491.88
2023-02-06T12:30:55.763Z,103510.09
2023-02-06T12:33:33.288Z,103499.59
2023-02-06T12:36:07.957Z,103507.22
2023-02-06T12:38:43.733Z,103515.59
2023-02-06T12:41:24.823Z,103514.84
2023-02-06T12:43:57.050Z,103503.81
2023-02-06T12:46:28.161Z,103509.63
2023-02-06T12:49:02.164Z,103526.94
2023-02-06T12:51:37.106Z,103524.09
2023-02-06T12:54:12.225Z,103520.19
2023-02-06T12:56:43.605Z,103508.59
2023-02-06T12:59:57.656Z,103502.97
2023-02-06T13:02:48.963Z,103507.16
2023-02-06T13:05:22.093Z,103510.56
2023-02-06T13:07:52.573Z,103512.53
2023-02-06T13:10:21.738Z,103506.13
2023-02-06T13:12:55.387Z,103517.84
2023-02-06T13:15:25.934Z,103531.28
2023-02-06T13:17:55.458Z,103525.13
2023-02-06T13:20:25.298Z,103523.19
2023-02-06T13:22:56.118Z,103526.22
2023-02-06T13:25:47.508Z,103524.47
2023-02-06T13:28:41.299Z,103521.75
2023-02-06T13:31:22.974Z,103532.56
2023-02-06T13:33:53.653Z,103540.13
2023-02-06T13:36:28.525Z,103530.28
2023-02-06T13:38:58.159Z,103525.22
2023-02-06T13:41:31.698Z,103533.72
2023-02-06T13:44:03.393Z,103526.56
2023-02-06T13:46:57.627Z,103530.91
2023-02-06T13:49:59.213Z,103539.75
2023-02-06T13:52:36.324Z,103532.25
2023-02-06T13:55:18.506Z,103541.38
2023-02-06T13:58:04.858Z,103539.06
2023-02-06T14:00:33.984Z,103551.72
2023-02-06T14:03:08.049Z,103548.34
2023-02-06T14:05:55.684Z,103549.72
2023-02-06T14:08:30.842Z,103564.22
2023-02-06T14:11:20.124Z,103561.97
2023-02-06T14:14:17.290Z,103562.72
2023-02-06T14:16:50.385Z,103553.63
2023-02-06T14:19:26.481Z,103553.50
2023-02-06T14:22:04.103Z,103568.47
2023-02-06T14:24:47.961Z,103581.06
2023-02-06T14:27:31.465Z,103590.25
2023-02-06T14:30:15.698Z,103581.66
2023-02-06T14:32:49.908Z,103574.19
2023-02-06T14:35:32.494Z,103575.03
2023-02-06T14:38:23.972Z,103589.34
2023-02-06T14:40:53.513Z,103580.78
2023-02-06T14:43:26.611Z,103596.06
2023-02-06T14:46:06.939Z,103601.91
2023-02-06T14:48:40.955Z,103608.25
2023-02-06T14:51:19.075Z,103620.72
2023-02-06T14:53:53.251Z,103619.47
2023-02-06T14:56:29.222Z,103614.25
2023-02-06T14:58:58.099Z,103631.88
2023-02-06T15:01:28.643Z,103618.66
2023-02-06T15:04:10.525Z,103624.44
2023-02-06T15:06:39.890Z,103629.78
2023-02-06T15:09:08.626Z,103629.28
2023-02-06T15:11:36.399Z,103640.97
2023-02-06T15:14:08.963Z,103633.00
2023-02-06T15:16:46.865Z,103641.34
2023-02-06T15:19:19.906Z,103633.44
2023-02-06T15:21:47.951Z,103641.28
2023-02-06T15:24:34.187Z,103641.06
2023-02-06T15:27:08.807Z,103641.34
2023-02-06T15:29:38.195Z,103646.06
2023-02-06T15:32:08.565Z,103650.91
2023-02-06T15:34:36.364Z,103657.47
2023-02-06T15:37:22.712Z,103658.66
2023-02-06T15:39:51.020Z,103653.84
2023-02-06T15:42:20.627Z,103649.00
2023-02-06T15:44:50.755Z,103655.56
2023-02-06T15:47:20.237Z,103660.09
2023-02-06T15:49:50.053Z,103664.69
2023-02-06T15:52:34.208Z,103680.75
2023-02-06T15:55:01.986Z,103676.13
2023-02-06T15:57:33.158Z,103673.72
2023-02-06T16:00:02.965Z,103686.63
2023-02-06T16:02:34.060Z,103686.25
2023-02-06T16:05:03.481Z,103686.41
2023-02-06T16:07:33.540Z,103687.91
2023-02-06T16:10:06.016Z,103687.91
2023-02-06T16:12:35.286Z,103688.22
2023-02-06T16:15:25.177Z,103684.63
2023-02-06T16:17:52.802Z,103682.69
2023-02-06T16:20:33.190Z,103691.72
2023-02-06T16:23:21.688Z,103694.81
2023-02-06T16:25:59.704Z,103694.63
2023-02-06T16:28:28.283Z,103703.38
2023-02-06T16:30:59.563Z,103697.50
2023-02-06T16:33:35.013Z,103687.94
2023-02-06T16:36:06.260Z,103693.03
2023-02-06T16:38:34.312Z,103700.75
2023-02-06T16:41:02.071Z,103695.72
2023-02-06T16:43:31.612Z,103705.25
2023-02-06T16:46:02.761Z,103712.84
2023-02-06T16:48:30.226Z,103717.50
2023-02-06T16:50:57.726Z,103725.19
2023-02-06T16:53:26.638Z,103731.50
2023-02-06T16:55:54.184Z,103731.22
2023-02-06T16:58:24.228Z,103730.19
2023-02-06T17:00:52.433Z,103729.16
2023-02-06T17:03:21.338Z,103717.13
2023-02-06T17:05:52.155Z,103719.53
2023-02-06T17:08:22.318Z,103718.56
2023-02-06T17:10:49.889Z,103726.88
2023-02-06T17:13:19.474Z,103730.59
2023-02-06T17:15:48.062Z,103728.16
2023-02-06T17:18:18.167Z,103727.56
2023-02-06T17:20:48.695Z,103727.22
2023-02-06T17:23:16.585Z,103730.34
2023-02-06T17:25:46.265Z,103734.16
2023-02-06T17:28:16.693Z,103744.34
2023-02-06T17:30:45.652Z,103762.44
2023-02-06T17:33:13.395Z,103748.53
2023-02-06T17:35:40.823Z,103754.22
2023-02-06T17:38:10.672Z,103765.47
2023-02-06T17:40:40.254Z,103759.88
2023-02-06T17:43:07.992Z,103753.72
2023-02-06T17:45:38.079Z,103753.91
2023-02-06T17:48:06.641Z,103742.81
2023-02-06T17:50:36.815Z,103747.34
2023-02-06T17:53:05.870Z,103753.25
2023-02-06T17:55:36.516Z,103750.91
2023-02-06T17:58:04.229Z,103756.91
2023-02-06T18:00:32.037Z,103754.78
2023-02-06T18:03:00.901Z,103744.00
2023-02-06T18:05:28.801Z,103744.53
2023-02-06T18:07:56.269Z,103747.72
2023-02-06T18:10:25.978Z,103744.94
2023-02-06T18:12:54.819Z,103737.31
2023-02-06T18:15:22.323Z,103748.22
2023-02-06T18:17:49.875Z,103741.72
2023-02-06T18:20:17.775Z,103737.19
2023-02-06T18:22:45.324Z,103733.75
2023-02-06T18:25:14.931Z,103730.19
2023-02-06T18:27:45.479Z,103743.41
2023-02-06T18:30:17.128Z,103737.69
2023-02-06T18:32:44.763Z,103729.25
2023-02-06T18:35:12.379Z,103729.41
2023-02-06T18:37:39.815Z,103721.34
2023-02-06T18:40:07.836Z,103723.91
2023-02-06T18:42:58.150Z,103733.47
2023-02-06T18:45:31.159Z,103726.84
2023-02-06T18:47:58.595Z,103724.78
2023-02-06T18:50:26.005Z,103735.88
2023-02-06T18:52:53.430Z,103748.59
2023-02-06T18:55:21.279Z,103741.56
2023-02-06T18:57:49.491Z,103740.13
2023-02-06T19:00:19.082Z,103746.34
2023-02-06T19:02:48.183Z,103733.25
2023-02-06T19:05:16.140Z,103740.38
2023-02-06T19:07:43.566Z,103758.59
2023-02-06T19:10:13.005Z,103754.72
2023-02-06T19:12:40.644Z,103755.03
2023-02-06T19:15:09.134Z,103751.31
2023-02-06T19:17:36.649Z,103757.13
2023-02-06T19:20:08.469Z,103747.81
2023-02-06T19:22:36.416Z,103757.31
2023-02-06T19:25:05.917Z,103778.22
2023-02-06T19:27:33.305Z,103774.97
2023-02-06T19:30:00.754Z,103767.31
2023-02-06T19:32:29.115Z,103771.53
2023-02-06T19:34:57.814Z,103781.09
2023-02-06T19:37:26.546Z,103783.78
2023-02-06T19:39:54.012Z,103776.34
2023-02-06T19:42:21.474Z,103780.06
2023-02-06T19:44:52.588Z,103796.63
2023-02-06T19:47:19.990Z,103794.56
2023-02-06T19:49:50.500Z,103781.25
2023-02-06T19:52:18.127Z,103794.69
2023-02-06T19:54:47.739Z,103791.56
2023-02-06T19:57:15.950Z,103792.19
2023-02-06T19:59:43.420Z,103788.13
2023-02-06T20:02:15.413Z,103796.06
2023-02-06T20:04:45.113Z,103795.47
2023-02-06T20:07:12.798Z,103801.44
2023-02-06T20:09:41.910Z,103785.00
2023-02-06T20:12:12.388Z,103795.00
2023-02-06T20:14:40.000Z,103796.66
2023-02-06T20:17:07.453Z,103804.88
2023-02-06T20:19:34.886Z,103802.91
2023-02-06T20:22:03.080Z,103799.88
2023-02-06T20:24:32.685Z,103792.91
2023-02-06T20:27:02.477Z,103790.91
2023-02-06T20:29:34.152Z,103799.50
2023-02-06T20:32:01.943Z,103795.13
2023-02-06T20:34:29.930Z,103790.06
2023-02-06T20:36:57.431Z,103799.34
2023-02-06T20:39:26.227Z,103794.72
2023-02-06T20:41:54.144Z,103800.22
2023-02-06T20:44:22.391Z,103799.34
2023-02-06T20:46:51.273Z,103792.00
2023-02-06T20:49:20.506Z,103789.31
2023-02-06T20:51:49.146Z,103790.38
2023-02-06T20:54:17.031Z,103785.16
2023-02-06T20:56:44.582Z,103790.13
2023-02-06T20:59:14.089Z,103795.56
2023-02-06T21:01:42.033Z,103795.75
2023-02-06T21:04:13.378Z,103802.56
2023-02-06T21:06:41.123Z,103805.81
2023-02-06T21:09:09.877Z,103810.78
2023-02-06T21:11:41.925Z,103818.41
2023-02-06T21:14:10.185Z,103818.41
2023-02-06T21:16:38.704Z,103823.25
2023-02-06T21:19:08.243Z,103828.91
2023-02-06T21:21:38.043Z,103827.97
2023-02-06T21:24:06.297Z,103833.56
2023-02-06T21:26:34.408Z,103824.94
2023-02-06T21:29:03.736Z,103823.47
2023-02-06T21:31:36.867Z,103816.94
2023-02-06T21:34:09.018Z,103818.28
2023-02-06T21:36:39.583Z,103825.13
2023-02-06T21:39:10.839Z,103830.69
2023-02-06T21:41:38.421Z,103829.50
2023-02-06T21:44:06.267Z,103819.47
2023-02-06T21:46:34.454Z,103823.66
2023-02-06T21:49:01.977Z,103822.59
2023-02-06T21:51:29.643Z,103818.59
2023-02-06T21:53:58.794Z,103811.56
2023-02-06T21:56:28.563Z,103821.38
2023-02-06T21:58:56.446Z,103817.34
2023-02-06T22:01:26.899Z,103806.31
2023-02-06T22:03:55.239Z,103809.94
2023-02-06T22:06:22.640Z,103818.03
2023-02-06T22:08:52.805Z,103822.06
2023-02-06T22:11:24.002Z,103824.19
2023-02-06T22:13:53.967Z,103824.88
2023-02-06T22:16:23.412Z,103827.25
2023-02-06T22:18:53.628Z,103825.41
2023-02-06T22:21:25.211Z,103805.31
2023-02-06T22:23:53.319Z,103820.03
2023-02-06T22:26:22.331Z,103823.53
2023-02-06T22:28:50.435Z,103815.19
2023-02-06T22:31:20.750Z,103822.84
2023-02-06T22:33:50.777Z,103819.94
2023-02-06T22:36:20.256Z,103827.16
2023-02-06T22:38:49.042Z,103829.31
2023-02-06T22:41:17.866Z,103828.31
2023-02-06T22:43:47.271Z,103825.59
2023-02-06T22:46:19.982Z,103819.47
2023-02-06T22:48:48.076Z,103820.53
2023-02-06T22:51:15.922Z,103819.00
2023-02-06T22:53:44.561Z,103832.16
2023-02-06T22:56:31.200Z,103829.44
2023-02-06T22:59:03.177Z,103832.16
2023-02-06T23:01:33.161Z,103831.22
2023-02-06T23:04:04.953Z,103835.69
2023-02-06T23:06:34.087Z,103836.00
2023-02-06T23:09:04.100Z,103832.38
2023-02-06T23:11:32.424Z,103835.38
2023-02-06T23:14:03.746Z,103839.13
2023-02-06T23:16:33.027Z,103848.56
2023-02-06T23:19:04.384Z,103848.78
2023-02-06T23:21:33.768Z,103845.94
2023-02-06T23:24:01.622Z,103846.72
2023-02-06T23:26:29.706Z,103839.50
2023-02-06T23:28:58.154Z,103846.41
2023-02-06T23:31:28.384Z,103850.50
2023-02-06T23:33:56.042Z,103862.50
2023-02-06T23:36:26.578Z,103871.69
2023-02-06T23:38:54.719Z,103869.66
2023-02-06T23:41:24.442Z,103866.09
2023-02-06T23:43:52.993Z,103871.63
2023-02-06T23:46:27.230Z,103871.03
2023-02-06T23:48:55.377Z,103862.69
2023-02-06T23:51:24.111Z,103864.97
2023-02-06T23:53:52.391Z,103872.47
2023-02-06T23:56:23.257Z,103872.41
2023-02-06T23:58:51.166Z,103867.91
